Washington Dulles International Airport
KIAD : now visible

Aeroporto :











RITROVATECI SU...

 
LOGIN :

Iscrizione | Disclaimer

   EN    FR    IT 

 









Sommario :    VFR   VFR Marginale   IFR   IFR Intensivo   IFR Molto Intensivo
Visibilità : 
Base nubi : 
>= 8 km
>= 3000ft
5 / 8 km
1000 / 3000 ft
1500m / 5 km
500 / 1000 ft
800 / 1500m
200 / 500 ft
< 800m
< 200 ft
Simboli :   Temporali  Nebbia  Neve Forte  Precipitazioni Forti  Vento > 20 kt







- Altitudine del aeroporto : 312 ft
- Codice IATA : IAD


KIAD - Washington Dulles International

ULTIMO METAR :
  • 210552Z 20007KT 10SM OVC085 13/04 A2984 RMK AO2 SLP103 60000 T01330044 10172 20133 51013

METARs OBSOLETI :
  • 210452Z 20006KT 10SM BKN065 OVC095 13/04 A2984 RMK AO2 SLP103 T01330044 402220133
  • 210352Z 19005KT 10SM SCT060 OVC095 14/04 A2982 RMK AO2 SLP097 T01390044

TAF KIAD
Valido dal 21 a 06 ore il 22 a 12 ore UTC


210520Z 2106/2212 20005KT P6SM BKN060 BKN100
FM211100 VRB03KT P6SM SCT100
FM211500 30005KT P6SM BKN035
FM220600 32005KT P6SM SCT040
FIR KZDC / America del Nord



MetMap, La meteo Aeronautica in un colpo d'occhio ! - Copyright ORBIFLY Dicembre 2007 - Disclaimer

ORBIFLY MET'MAP TEAM :

Programmazione e sviluppo : Alexandra Zaïnal
Concezione e sviluppo : Baudouin d'Aumeries
Co-Programmazione e sviluppo : Marc-Olivier Méhu
Supporto tecnico e logistico : Manuel Goepfert
Aiuto per la traduzione : Arnaldo La Scala

Contatto : metmap@orbifly.com




FONTI E CREDITI :

   NOAA       Earth
Advisory